Time;durP1;ratioP1;P1;durP2;ratioP2;P2;SDS_P1;SDS_P2;PMS_P1;PMS_P2;Temp;Humidity;BMP_temperature;BMP_pressure;BME280_temperature;BME280_humidity;BME280_pressure;Samples;Min_cycle;Max_cycle;Signal;HPM_P1;HPM_P2
2021/11/07 00:00:12;;;;;;;;;;;20.70;99.90;;;;;;5070994;28;19920;-69
2021/11/07 00:05:30;;;;;;;;;;;20.90;99.90;;;;;;5072578;28;19909;-67
2021/11/07 00:10:39;;;;;;;;;;;21.20;99.90;;;;;;5051969;28;19909;-68
2021/11/07 00:13:22;;;;;;;;;;;21.30;99.90;;;;;;5052536;28;19933;-66
2021/11/07 00:15:49;;;;;;;;;;;21.50;99.90;;;;;;5069555;28;19912;-67
2021/11/07 00:18:20;;;;;;;;;;;21.30;99.90;;;;;;5072438;28;19915;-67
2021/11/07 00:20:53;;;;;;;;;;;21.40;99.90;;;;;;5072453;28;19954;-69
2021/11/07 00:25:56;;;;;;;;;;;21.50;99.90;;;;;;5071967;28;19909;-74
2021/11/07 00:28:46;;;;;;;;;;;21.40;99.90;;;;;;5071213;28;20294;-71
2021/11/07 00:42:51;;;;;;;;;;;21.60;99.90;;;;;;5072241;28;20274;-73
2021/11/07 00:48:07;;;;;;;;;;;21.90;99.90;;;;;;5071684;28;19917;-68
2021/11/07 00:50:49;;;;;;;;;;;22.10;99.90;;;;;;5072057;28;19912;-70
2021/11/07 00:55:53;;;;;;;;;;;22.60;99.90;;;;;;5067177;28;20026;-69
2021/11/07 00:58:32;;;;;;;;;;;22.80;99.90;;;;;;5061455;28;19912;-71
2021/11/07 01:01:03;;;;;;;;;;;22.80;99.90;;;;;;5072280;28;19931;-72
2021/11/07 01:03:30;;;;;;;;;;;22.70;99.90;;;;;;5066250;28;19912;-69
2021/11/07 01:05:57;;;;;;;;;;;22.70;99.90;;;;;;5059027;28;20374;-71
2021/11/07 01:08:23;;;;;;;;;;;22.70;99.90;;;;;;5060858;28;20011;-68
2021/11/07 01:10:50;;;;;;;;;;;22.80;99.90;;;;;;5057525;28;20370;-73
2021/11/07 01:13:17;;;;;;;;;;;22.90;99.90;;;;;;5059626;28;20354;-69
2021/11/07 01:15:44;;;;;;;;;;;22.90;99.90;;;;;;5075606;28;19908;-71
2021/11/07 01:18:11;;;;;;;;;;;22.90;99.90;;;;;;5075381;28;20006;-72
2021/11/07 01:20:37;;;;;;;;;;;22.80;99.90;;;;;;5059455;28;19959;-74
2021/11/07 01:25:43;;;;;;;;;;;22.60;99.90;;;;;;5058095;28;19913;-72
2021/11/07 01:28:10;;;;;;;;;;;22.40;99.90;;;;;;5069706;28;19920;-74
2021/11/07 01:30:45;;;;;;;;;;;22.30;99.90;;;;;;5058947;28;20382;-71
2021/11/07 01:33:18;;;;;;;;;;;22.10;99.90;;;;;;5056137;28;20361;-73
2021/11/07 01:36:18;;;;;;;;;;;22.00;99.90;;;;;;5058603;28;19991;-74
2021/11/07 01:38:39;;;;;;;;;;;21.90;99.90;;;;;;5066546;28;19908;-74
2021/11/07 01:41:19;;;;;;;;;;;21.90;99.90;;;;;;5067764;28;20351;-72
2021/11/07 01:43:46;;;;;;;;;;;22.00;99.90;;;;;;5072338;28;19916;-71
2021/11/07 01:46:27;;;;;;;;;;;22.40;99.90;;;;;;5073345;28;20358;-67
2021/11/07 01:49:03;;;;;;;;;;;22.60;99.90;;;;;;5064600;28;19967;-72
2021/11/07 01:51:30;;;;;;;;;;;22.90;99.90;;;;;;5055915;28;20306;-68
2021/11/07 01:54:19;;;;;;;;;;;23.10;99.90;;;;;;5066937;28;19912;-73
2021/11/07 01:56:46;;;;;;;;;;;23.10;99.90;;;;;;5073258;28;19917;-72
2021/11/07 01:59:12;;;;;;;;;;;23.20;99.90;;;;;;5059177;28;19913;-70
2021/11/07 02:01:39;;;;;;;;;;;23.40;99.90;;;;;;5066988;28;19913;-71
2021/11/07 02:04:06;;;;;;;;;;;23.50;99.90;;;;;;5071110;28;20389;-69
2021/11/07 02:06:32;;;;;;;;;;;23.60;99.90;;;;;;5064082;28;20363;-71
2021/11/07 02:08:59;;;;;;;;;;;23.60;99.90;;;;;;5074398;28;20347;-69
2021/11/07 02:11:26;;;;;;;;;;;23.50;99.90;;;;;;5061925;28;19955;-69
2021/11/07 02:13:52;;;;;;;;;;;23.30;99.90;;;;;;5059173;28;19924;-70
2021/11/07 02:16:21;;;;;;;;;;;23.20;99.90;;;;;;5066821;28;19924;-68
2021/11/07 02:18:48;;;;;;;;;;;23.10;99.90;;;;;;5063676;28;19943;-69
2021/11/07 02:21:15;;;;;;;;;;;23.10;99.90;;;;;;5061691;28;19912;-69
2021/11/07 02:23:42;;;;;;;;;;;22.70;99.90;;;;;;5055722;28;19926;-71
2021/11/07 02:26:15;;;;;;;;;;;22.30;99.90;;;;;;5074202;28;20310;-69
2021/11/07 02:28:45;;;;;;;;;;;22.00;99.90;;;;;;5056218;28;19916;-71
2021/11/07 02:31:13;;;;;;;;;;;21.70;99.90;;;;;;5053964;28;19924;-68
2021/11/07 02:33:40;;;;;;;;;;;21.40;99.90;;;;;;5048223;28;19921;-71
2021/11/07 02:36:09;;;;;;;;;;;21.30;99.90;;;;;;5034065;28;19909;-72
2021/11/07 02:38:36;;;;;;;;;;;21.20;99.90;;;;;;5033775;28;19916;-72
2021/11/07 02:41:04;;;;;;;;;;;21.20;99.90;;;;;;5053358;28;19913;-71
2021/11/07 02:43:30;;;;;;;;;;;21.20;99.90;;;;;;5045027;28;20367;-73
2021/11/07 02:45:57;;;;;;;;;;;21.30;99.90;;;;;;5035986;28;19936;-72
2021/11/07 02:48:24;;;;;;;;;;;21.20;99.90;;;;;;5051053;28;19972;-70
2021/11/07 02:50:50;;;;;;;;;;;21.10;99.90;;;;;;5052524;28;19920;-69
2021/11/07 02:53:17;;;;;;;;;;;20.90;99.90;;;;;;5053235;28;20004;-75
2021/11/07 02:55:44;;;;;;;;;;;21.00;99.90;;;;;;5053482;28;19916;-75
2021/11/07 02:58:11;;;;;;;;;;;20.90;99.90;;;;;;5066887;28;20264;-72
2021/11/07 03:00:37;;;;;;;;;;;20.90;99.90;;;;;;5073429;28;19908;-71
2021/11/07 03:03:04;;;;;;;;;;;21.00;99.90;;;;;;5073507;28;19909;-76
2021/11/07 03:05:32;;;;;;;;;;;20.90;99.90;;;;;;5073487;28;19991;-71
2021/11/07 03:07:59;;;;;;;;;;;20.90;99.90;;;;;;5071848;28;19924;-75
2021/11/07 03:10:29;;;;;;;;;;;20.80;99.90;;;;;;5073343;28;19954;-67
2021/11/07 03:13:07;;;;;;;;;;;20.80;99.90;;;;;;5053613;28;19919;-72
2021/11/07 03:15:35;;;;;;;;;;;20.80;99.90;;;;;;5072904;28;19909;-72
2021/11/07 03:18:02;;;;;;;;;;;20.90;99.90;;;;;;5073020;28;19915;-75
2021/11/07 03:20:29;;;;;;;;;;;20.90;99.90;;;;;;5072989;28;19963;-74
2021/11/07 03:22:56;;;;;;;;;;;20.70;99.90;;;;;;5054943;28;19912;-75
2021/11/07 03:25:24;;;;;;;;;;;20.50;99.90;;;;;;5072887;28;19909;-72
2021/11/07 03:27:52;;;;;;;;;;;20.40;99.90;;;;;;5070954;28;19927;-74
2021/11/07 03:30:51;;;;;;;;;;;20.40;99.90;;;;;;5077369;28;20011;-76
2021/11/07 03:33:31;;;;;;;;;;;20.10;99.90;;;;;;5093158;28;19908;-77
2021/11/07 03:36:01;;;;;;;;;;;19.70;99.90;;;;;;5092258;28;19915;-76
2021/11/07 03:38:28;;;;;;;;;;;19.50;99.90;;;;;;5093110;28;20384;-76
2021/11/07 03:40:55;;;;;;;;;;;19.40;99.90;;;;;;5091947;28;20403;-77
2021/11/07 03:43:25;;;;;;;;;;;19.30;99.90;;;;;;5093040;28;19947;-78
2021/11/07 03:45:52;;;;;;;;;;;19.30;99.90;;;;;;5092792;28;19959;-75
2021/11/07 03:48:19;;;;;;;;;;;19.30;99.90;;;;;;5092989;28;20018;-75
2021/11/07 03:50:46;;;;;;;;;;;19.30;99.90;;;;;;5092859;28;20262;-74
2021/11/07 03:53:12;;;;;;;;;;;19.50;99.90;;;;;;5089321;28;19923;-76
2021/11/07 03:55:39;;;;;;;;;;;19.60;99.90;;;;;;5092713;28;19908;-75
2021/11/07 03:58:06;;;;;;;;;;;19.80;99.90;;;;;;5092893;28;19908;-77
2021/11/07 04:00:32;;;;;;;;;;;19.80;99.90;;;;;;5092966;28;19922;-76
2021/11/07 04:02:59;;;;;;;;;;;19.90;99.90;;;;;;5092783;28;19948;-74
2021/11/07 04:05:26;;;;;;;;;;;19.90;99.90;;;;;;5092588;28;19923;-73
2021/11/07 04:07:53;;;;;;;;;;;20.00;99.90;;;;;;5090997;28;20003;-75
2021/11/07 04:10:19;;;;;;;;;;;19.90;99.90;;;;;;5092623;28;19965;-75
2021/11/07 04:12:46;;;;;;;;;;;19.80;99.90;;;;;;5092606;28;19908;-76
2021/11/07 04:15:13;;;;;;;;;;;19.90;99.90;;;;;;5092864;28;20050;-77
2021/11/07 04:17:39;;;;;;;;;;;19.80;99.90;;;;;;5092422;28;19916;-78
2021/11/07 04:20:07;;;;;;;;;;;19.90;99.90;;;;;;5092718;28;19908;-79
2021/11/07 04:22:34;;;;;;;;;;;20.00;99.90;;;;;;5090980;28;19908;-77
2021/11/07 04:25:01;;;;;;;;;;;19.90;99.90;;;;;;5092545;28;19912;-78
2021/11/07 04:27:27;;;;;;;;;;;19.80;99.90;;;;;;5092414;28;19916;-77
2021/11/07 04:29:54;;;;;;;;;;;19.80;99.90;;;;;;5091940;28;19916;-77
2021/11/07 04:32:21;;;;;;;;;;;19.70;99.90;;;;;;5092702;28;19915;-77
2021/11/07 04:34:48;;;;;;;;;;;19.70;99.90;;;;;;5092444;28;19966;-74
2021/11/07 04:37:14;;;;;;;;;;;19.70;99.90;;;;;;5091090;28;20428;-73
2021/11/07 04:39:41;;;;;;;;;;;19.70;99.90;;;;;;5092193;28;19939;-77
2021/11/07 04:42:10;;;;;;;;;;;19.70;99.90;;;;;;5092422;28;20254;-74
2021/11/07 04:44:37;;;;;;;;;;;19.80;99.90;;;;;;5092425;28;19955;-78
2021/11/07 04:47:04;;;;;;;;;;;19.80;99.90;;;;;;5094191;28;20312;-76
2021/11/07 04:49:31;;;;;;;;;;;19.80;99.90;;;;;;5096320;28;19908;-77
2021/11/07 04:51:58;;;;;;;;;;;19.80;99.90;;;;;;5094135;28;20362;-76
2021/11/07 04:54:25;;;;;;;;;;;19.90;99.90;;;;;;5096781;28;19963;-77
2021/11/07 04:56:52;;;;;;;;;;;19.90;99.90;;;;;;5096452;28;19912;-76
2021/11/07 04:59:19;;;;;;;;;;;19.90;99.90;;;;;;5096273;28;19912;-77
2021/11/07 05:01:47;;;;;;;;;;;19.80;99.90;;;;;;5096085;28;19915;-77
2021/11/07 05:04:14;;;;;;;;;;;19.90;99.90;;;;;;5096042;28;19912;-76
2021/11/07 05:06:41;;;;;;;;;;;19.90;99.90;;;;;;5094150;28;20377;-69
2021/11/07 05:09:07;;;;;;;;;;;19.90;99.90;;;;;;5074350;28;19924;-79
2021/11/07 05:11:34;;;;;;;;;;;19.90;99.90;;;;;;5075520;28;19908;-77
2021/11/07 05:14:01;;;;;;;;;;;19.90;99.90;;;;;;5075463;28;19908;-67
2021/11/07 05:16:27;;;;;;;;;;;19.90;99.90;;;;;;5075390;28;20006;-80
2021/11/07 05:18:54;;;;;;;;;;;19.90;99.90;;;;;;5075298;28;20362;-78
2021/11/07 05:21:22;;;;;;;;;;;19.90;99.90;;;;;;5088048;28;19959;-77
2021/11/07 05:23:49;;;;;;;;;;;19.90;99.90;;;;;;5095247;28;19915;-79
2021/11/07 05:26:16;;;;;;;;;;;19.90;99.90;;;;;;5095715;28;19909;-79
2021/11/07 05:28:43;;;;;;;;;;;19.90;99.90;;;;;;5095570;28;20014;-79
2021/11/07 05:31:09;;;;;;;;;;;19.80;99.90;;;;;;5095338;28;20316;-75
2021/11/07 05:33:36;;;;;;;;;;;19.90;99.90;;;;;;5095360;28;19908;-75
2021/11/07 05:36:03;;;;;;;;;;;19.90;99.90;;;;;;5094495;28;19912;-76
2021/11/07 05:38:30;;;;;;;;;;;19.90;99.90;;;;;;5095546;28;19962;-79
2021/11/07 05:40:56;;;;;;;;;;;19.90;99.90;;;;;;5095371;28;19909;-78
2021/11/07 05:43:23;;;;;;;;;;;20.00;99.90;;;;;;5077109;28;19908;-75
2021/11/07 05:45:51;;;;;;;;;;;19.90;99.90;;;;;;5094805;28;19908;-77
2021/11/07 05:48:17;;;;;;;;;;;20.00;99.90;;;;;;5094876;28;19923;-77
2021/11/07 05:50:45;;;;;;;;;;;20.10;99.90;;;;;;5093429;28;19912;-76
2021/11/07 05:53:12;;;;;;;;;;;20.10;99.90;;;;;;5095102;28;19912;-75
2021/11/07 05:55:39;;;;;;;;;;;20.20;99.90;;;;;;5094900;28;19923;-76
2021/11/07 05:58:06;;;;;;;;;;;20.20;99.90;;;;;;5094476;28;19915;-76
2021/11/07 06:00:34;;;;;;;;;;;20.10;99.90;;;;;;5095054;28;19919;-77
2021/11/07 06:03:02;;;;;;;;;;;20.20;99.90;;;;;;5094729;28;19916;-76
2021/11/07 06:05:28;;;;;;;;;;;20.20;99.90;;;;;;5093317;28;20347;-77
2021/11/07 06:07:55;;;;;;;;;;;20.30;99.90;;;;;;5094328;28;20015;-73
2021/11/07 06:10:22;;;;;;;;;;;20.20;99.90;;;;;;5094732;28;19912;-78
2021/11/07 06:12:48;;;;;;;;;;;20.30;99.90;;;;;;5094889;28;19914;-78
2021/11/07 06:15:16;;;;;;;;;;;20.30;99.90;;;;;;5094529;28;20343;-74
2021/11/07 06:17:43;;;;;;;;;;;20.30;99.90;;;;;;5094529;28;19909;-78
2021/11/07 06:20:10;;;;;;;;;;;20.30;99.90;;;;;;5092523;28;19918;-78
2021/11/07 06:22:37;;;;;;;;;;;20.30;99.90;;;;;;5094542;28;19908;-72
2021/11/07 06:25:04;;;;;;;;;;;20.20;99.90;;;;;;5094458;28;19912;-76
2021/11/07 06:27:31;;;;;;;;;;;20.20;99.90;;;;;;5094544;28;19962;-77
2021/11/07 06:29:59;;;;;;;;;;;20.20;99.90;;;;;;5094064;28;19908;-77
2021/11/07 06:32:25;;;;;;;;;;;20.20;99.90;;;;;;5094589;28;19998;-75
2021/11/07 06:34:52;;;;;;;;;;;20.20;99.90;;;;;;5093113;28;19922;-76
2021/11/07 06:37:19;;;;;;;;;;;20.10;99.90;;;;;;5094032;28;19947;-75
2021/11/07 06:39:46;;;;;;;;;;;20.10;99.90;;;;;;5094026;28;19934;-74
2021/11/07 06:42:12;;;;;;;;;;;20.10;99.90;;;;;;5094228;28;19982;-75
2021/11/07 06:44:39;;;;;;;;;;;20.10;99.90;;;;;;5093943;28;19919;-73
2021/11/07 06:47:08;;;;;;;;;;;20.10;99.90;;;;;;5093724;28;20026;-77
2021/11/07 06:49:35;;;;;;;;;;;20.10;99.90;;;;;;5092164;28;20010;-75
2021/11/07 06:52:03;;;;;;;;;;;20.10;99.90;;;;;;5094159;28;19912;-75
2021/11/07 06:54:30;;;;;;;;;;;20.20;99.90;;;;;;5094995;28;19908;-75
2021/11/07 06:56:56;;;;;;;;;;;20.20;99.90;;;;;;5093980;28;19951;-76
2021/11/07 06:59:23;;;;;;;;;;;20.20;99.90;;;;;;5093764;28;20257;-76
2021/11/07 07:01:50;;;;;;;;;;;20.20;99.90;;;;;;5093724;28;19912;-78
2021/11/07 07:04:17;;;;;;;;;;;20.30;99.90;;;;;;5092539;28;19958;-77
2021/11/07 07:06:44;;;;;;;;;;;20.30;99.90;;;;;;5093814;28;20349;-70
2021/11/07 07:09:14;;;;;;;;;;;20.40;99.90;;;;;;5093683;28;19920;-69
2021/11/07 07:11:46;;;;;;;;;;;20.30;99.90;;;;;;5085977;28;20476;-76
2021/11/07 07:14:18;;;;;;;;;;;20.30;99.90;;;;;;5073270;28;20443;-69
2021/11/07 07:30:10;;;;;;;;;;;19.70;99.90;;;;;;5093154;28;19957;-76
2021/11/07 07:35:13;;;;;;;;;;;19.70;99.90;;;;;;5093058;28;19912;-74
2021/11/07 07:37:40;;;;;;;;;;;19.80;99.90;;;;;;5092905;28;19915;-69
2021/11/07 07:40:07;;;;;;;;;;;19.80;99.90;;;;;;5093170;28;20396;-69
2021/11/07 07:42:34;;;;;;;;;;;19.80;99.90;;;;;;5092303;28;19908;-67
2021/11/07 07:45:02;;;;;;;;;;;19.80;99.90;;;;;;5092925;28;19991;-76
2021/11/07 07:47:29;;;;;;;;;;;19.90;99.90;;;;;;5073560;28;19920;-72
2021/11/07 07:49:56;;;;;;;;;;;19.90;99.90;;;;;;5092625;28;19908;-70
2021/11/07 07:52:27;;;;;;;;;;;19.90;99.90;;;;;;5092901;28;19908;-71
2021/11/07 07:54:56;;;;;;;;;;;19.90;99.90;;;;;;5093159;28;19943;-74
2021/11/07 07:57:23;;;;;;;;;;;19.90;99.90;;;;;;5092349;28;19995;-72
2021/11/07 07:59:50;;;;;;;;;;;19.90;99.90;;;;;;5092597;28;19912;-70
2021/11/07 08:02:17;;;;;;;;;;;19.90;99.90;;;;;;5090821;28;19924;-69
2021/11/07 08:04:43;;;;;;;;;;;19.80;99.90;;;;;;5092669;28;19908;-70
2021/11/07 08:07:10;;;;;;;;;;;19.80;99.90;;;;;;5092556;28;19915;-71
2021/11/07 08:09:37;;;;;;;;;;;19.80;99.90;;;;;;5092541;28;20492;-70
2021/11/07 08:12:03;;;;;;;;;;;19.80;99.90;;;;;;5091837;28;19942;-69
2021/11/07 08:14:30;;;;;;;;;;;19.80;99.90;;;;;;5092713;28;19960;-76
2021/11/07 08:16:57;;;;;;;;;;;19.90;99.90;;;;;;5091495;28;19912;-76
2021/11/07 09:38:02;;;;;;;;;;;19.40;99.90;;;;;;6193053;23;19912;-79
2021/11/07 09:40:31;;;;;;;;;;;19.40;99.90;;;;;;6192363;23;19905;-71
2021/11/07 09:43:24;;;;;;;;;;;19.30;99.90;;;;;;6193166;23;20349;-74
2021/11/07 09:46:03;;;;;;;;;;;19.30;99.90;;;;;;6192935;23;19904;-71
2021/11/07 09:48:34;;;;;;;;;;;19.20;99.90;;;;;;6192415;23;20066;-67
2021/11/07 09:51:01;;;;;;;;;;;19.30;99.90;;;;;;6166891;23;20319;-68
2021/11/07 09:53:28;;;;;;;;;;;19.40;99.90;;;;;;6192842;23;19904;-66
2021/11/07 09:55:55;;;;;;;;;;;19.40;99.90;;;;;;6192903;23;19904;-78
2021/11/07 09:58:22;;;;;;;;;;;19.40;99.90;;;;;;6191766;23;19996;-76
2021/11/07 10:00:54;;;;;;;;;;;19.30;99.90;;;;;;6193205;23;19950;-77
2021/11/07 10:03:23;;;;;;;;;;;19.30;99.90;;;;;;6192993;23;19959;-68
2021/11/07 10:05:51;;;;;;;;;;;19.20;99.90;;;;;;6193092;23;19911;-70
2021/11/07 10:08:19;;;;;;;;;;;19.20;99.90;;;;;;6190253;23;19936;-67
2021/11/07 10:11:09;;;;;;;;;;;19.20;99.90;;;;;;6185578;23;19904;-66
2021/11/07 10:13:33;;;;;;;;;;;19.10;99.90;;;;;;6184271;23;20038;-70
2021/11/07 10:16:12;;;;;;;;;;;19.10;99.90;;;;;;6186007;23;19959;-70
2021/11/07 10:18:58;;;;;;;;;;;19.10;99.90;;;;;;6185956;23;19915;-80
2021/11/07 10:21:44;;;;;;;;;;;19.20;99.90;;;;;;6185528;23;19987;-67
2021/11/07 10:24:18;;;;;;;;;;;19.10;99.90;;;;;;6186562;23;19910;-68
2021/11/07 10:26:49;;;;;;;;;;;19.10;99.90;;;;;;6155735;23;20328;-78
2021/11/07 10:29:31;;;;;;;;;;;19.10;99.90;;;;;;6156428;23;19927;-71
2021/11/07 10:34:55;;;;;;;;;;;19.10;99.90;;;;;;6156303;23;19987;-67
2021/11/07 10:40:41;;;;;;;;;;;19.00;99.90;;;;;;6096286;23;19905;-67
2021/11/07 10:53:53;;;;;;;;;;;18.80;99.90;;;;;;6094761;23;19906;-68
2021/11/07 10:56:19;;;;;;;;;;;18.80;99.90;;;;;;6093953;23;20312;-73
2021/11/07 10:58:46;;;;;;;;;;;18.80;99.90;;;;;;6125772;23;19929;-71
2021/11/07 11:01:19;;;;;;;;;;;18.80;99.90;;;;;;6155951;23;19912;-70
2021/11/07 11:03:47;;;;;;;;;;;18.80;99.90;;;;;;6155982;23;19936;-68
2021/11/07 11:06:15;;;;;;;;;;;18.80;99.90;;;;;;6156279;23;19904;-72
2021/11/07 11:08:52;;;;;;;;;;;18.90;99.90;;;;;;6154432;23;20312;-80
2021/11/07 11:11:56;;;;;;;;;;;18.90;99.90;;;;;;6155646;23;19904;-70
2021/11/07 11:14:33;;;;;;;;;;;18.90;99.90;;;;;;6155884;23;19915;-75
2021/11/07 11:27:52;;;;;;;;;;;18.90;99.90;;;;;;6184902;23;19915;-67
2021/11/07 11:38:17;;;;;;;;;;;18.70;99.90;;;;;;6195415;23;19912;-68
2021/11/07 11:43:25;;;;;;;;;;;18.90;99.90;;;;;;6185519;23;19915;-70
2021/11/07 11:46:02;;;;;;;;;;;18.80;99.90;;;;;;6184971;23;19932;-70
2021/11/07 11:48:47;;;;;;;;;;;18.80;99.90;;;;;;6185000;23;19905;-76
2021/11/07 11:54:07;;;;;;;;;;;18.90;99.90;;;;;;6185476;23;19904;-70
2021/11/07 11:56:55;;;;;;;;;;;18.80;99.90;;;;;;6184909;23;20223;-79
2021/11/07 11:59:33;;;;;;;;;;;18.80;99.90;;;;;;6184359;23;19904;-81
2021/11/07 12:02:15;;;;;;;;;;;18.80;99.90;;;;;;6184974;23;19904;-82
2021/11/07 12:05:00;;;;;;;;;;;18.80;99.90;;;;;;6184363;23;20380;-70
2021/11/07 12:07:33;;;;;;;;;;;18.80;99.90;;;;;;6185453;23;19987;-68
2021/11/07 12:10:02;;;;;;;;;;;18.70;99.90;;;;;;6184959;23;19979;-70
2021/11/07 12:12:39;;;;;;;;;;;18.60;99.90;;;;;;6185054;23;19906;-72
2021/11/07 12:15:12;;;;;;;;;;;18.50;99.90;;;;;;6184626;23;20300;-70
2021/11/07 12:17:40;;;;;;;;;;;18.50;99.90;;;;;;6185093;23;20312;-73
2021/11/07 12:20:25;;;;;;;;;;;18.40;99.90;;;;;;6185021;23;19938;-81
2021/11/07 12:23:11;;;;;;;;;;;18.40;99.90;;;;;;6184997;23;19911;-78
2021/11/07 12:25:38;;;;;;;;;;;18.40;99.90;;;;;;6184843;23;19923;-70
2021/11/07 12:28:04;;;;;;;;;;;18.40;99.90;;;;;;6185137;23;20315;-78
2021/11/07 12:30:31;;;;;;;;;;;18.40;99.90;;;;;;6184573;23;19912;-79
2021/11/07 12:33:04;;;;;;;;;;;18.30;99.90;;;;;;6184638;23;19932;-69
2021/11/07 12:35:35;;;;;;;;;;;18.30;99.90;;;;;;6185326;23;19904;-68
2021/11/07 12:40:49;;;;;;;;;;;18.40;99.90;;;;;;6185108;23;19911;-68
2021/11/07 12:43:23;;;;;;;;;;;18.40;99.90;;;;;;6184929;23;20367;-69
2021/11/07 12:45:53;;;;;;;;;;;18.50;99.90;;;;;;6184324;23;19904;-79
2021/11/07 12:48:40;;;;;;;;;;;18.50;99.90;;;;;;6184955;23;19905;-69
2021/11/07 12:51:08;;;;;;;;;;;18.50;99.90;;;;;;6185071;23;19927;-68
2021/11/07 12:53:54;;;;;;;;;;;18.50;99.90;;;;;;6184943;23;19912;-73
2021/11/07 12:56:28;;;;;;;;;;;18.40;99.90;;;;;;6184795;23;20228;-72
2021/11/07 12:58:54;;;;;;;;;;;18.40;99.90;;;;;;6184762;23;19995;-68
2021/11/07 13:01:21;;;;;;;;;;;18.40;99.90;;;;;;6184457;23;19908;-70
2021/11/07 13:03:51;;;;;;;;;;;18.40;99.90;;;;;;6184864;23;19924;-69
2021/11/07 13:06:20;;;;;;;;;;;18.40;99.90;;;;;;6185072;23;19904;-67
2021/11/07 13:08:53;;;;;;;;;;;18.40;99.90;;;;;;6184738;23;20246;-73
2021/11/07 13:11:25;;;;;;;;;;;18.30;99.90;;;;;;6184820;23;19912;-70
2021/11/07 13:14:04;;;;;;;;;;;18.30;99.90;;;;;;6184973;23;20327;-71
2021/11/07 13:16:50;;;;;;;;;;;18.40;99.90;;;;;;6184475;23;19909;-69
2021/11/07 13:25:45;;;;;;;;;;;18.30;99.90;;;;;;6184295;23;19904;-72
2021/11/07 13:27:42;;;;;;;;;;;18.20;99.90;;;;;;6158942;23;19904;-69
2021/11/07 13:30:16;;;;;;;;;;;18.20;99.90;;;;;;6184170;23;20275;-68
2021/11/07 13:32:43;;;;;;;;;;;18.10;99.90;;;;;;6184660;23;19991;-67
2021/11/07 13:35:24;;;;;;;;;;;18.10;99.90;;;;;;6184928;23;19904;-68
2021/11/07 13:38:04;;;;;;;;;;;18.10;99.90;;;;;;6184584;23;19912;-68
2021/11/07 13:40:35;;;;;;;;;;;18.20;99.90;;;;;;6184068;23;19904;-68
2021/11/07 13:43:04;;;;;;;;;;;18.20;99.90;;;;;;6184746;23;19911;-69
2021/11/07 13:45:31;;;;;;;;;;;18.30;99.90;;;;;;6186023;23;19905;-71
2021/11/07 13:48:00;;;;;;;;;;;18.30;99.90;;;;;;6186799;23;20227;-70
2021/11/07 13:50:30;;;;;;;;;;;18.30;99.90;;;;;;6186356;23;19905;-67
2021/11/07 13:52:57;;;;;;;;;;;18.40;99.90;;;;;;6186383;23;20236;-68
2021/11/07 13:55:27;;;;;;;;;;;18.40;99.90;;;;;;6186230;23;19908;-69
2021/11/07 13:57:54;;;;;;;;;;;18.40;99.90;;;;;;6186338;23;19939;-72
2021/11/07 14:00:23;;;;;;;;;;;18.40;99.90;;;;;;6185904;23;20235;-70
2021/11/07 14:02:55;;;;;;;;;;;18.40;99.90;;;;;;6186856;23;19904;-75
2021/11/07 14:05:22;;;;;;;;;;;18.40;99.90;;;;;;6186867;23;19912;-68
2021/11/07 14:08:03;;;;;;;;;;;18.40;99.90;;;;;;6186610;23;19904;-69
2021/11/07 14:10:31;;;;;;;;;;;18.30;99.90;;;;;;6186002;23;19928;-67
2021/11/07 14:12:58;;;;;;;;;;;18.30;99.90;;;;;;6185905;23;20264;-68
2021/11/07 14:15:29;;;;;;;;;;;18.20;99.90;;;;;;6186440;23;20339;-69
2021/11/07 14:18:06;;;;;;;;;;;18.20;99.90;;;;;;6186377;23;19912;-69
2021/11/07 14:20:38;;;;;;;;;;;18.20;99.90;;;;;;6159756;23;19908;-70
2021/11/07 14:23:15;;;;;;;;;;;18.10;99.90;;;;;;6186013;23;19904;-68
2021/11/07 14:25:59;;;;;;;;;;;18.20;99.90;;;;;;6186125;23;19917;-69
2021/11/07 14:28:34;;;;;;;;;;;18.20;99.90;;;;;;6184992;23;19926;-68
2021/11/07 14:31:03;;;;;;;;;;;18.20;99.90;;;;;;6185614;23;19912;-68
2021/11/07 14:33:43;;;;;;;;;;;18.20;99.90;;;;;;6186313;23;19908;-70
2021/11/07 14:36:30;;;;;;;;;;;18.10;99.90;;;;;;6186020;23;19904;-68
2021/11/07 14:39:08;;;;;;;;;;;18.00;99.90;;;;;;6186368;23;19908;-68
2021/11/07 14:41:43;;;;;;;;;;;18.00;99.90;;;;;;6186014;23;19954;-68
2021/11/07 14:44:26;;;;;;;;;;;18.00;99.90;;;;;;6185427;23;20271;-78
2021/11/07 14:47:05;;;;;;;;;;;18.00;99.90;;;;;;6186069;23;19912;-68
2021/11/07 14:49:55;;;;;;;;;;;18.00;99.90;;;;;;6186114;23;19979;-68
2021/11/07 14:55:23;;;;;;;;;;;18.00;99.90;;;;;;6160464;23;19904;-68
2021/11/07 15:00:45;;;;;;;;;;;18.00;99.90;;;;;;6185866;23;19904;-70
2021/11/07 15:03:17;;;;;;;;;;;18.00;99.90;;;;;;6186003;23;19908;-68
2021/11/07 15:05:55;;;;;;;;;;;18.00;99.90;;;;;;6186152;23;19947;-71
2021/11/07 15:08:33;;;;;;;;;;;18.00;99.90;;;;;;6185678;23;20216;-68
2021/11/07 15:17:08;;;;;;;;;;;18.00;99.90;;;;;;6119770;23;20315;-68
2021/11/07 15:22:25;;;;;;;;;;;18.00;99.90;;;;;;6185839;23;19951;-71
2021/11/07 15:25:05;;;;;;;;;;;18.10;99.90;;;;;;6185481;23;19991;-76
2021/11/07 15:27:32;;;;;;;;;;;18.00;99.90;;;;;;6185137;23;19905;-76
2021/11/07 15:30:01;;;;;;;;;;;18.00;99.90;;;;;;6185550;23;19998;-71
2021/11/07 15:32:30;;;;;;;;;;;18.00;99.90;;;;;;6185364;23;19908;-70
2021/11/07 15:34:58;;;;;;;;;;;18.00;99.90;;;;;;6185747;23;19915;-74
2021/11/07 15:37:27;;;;;;;;;;;18.00;99.90;;;;;;6185321;23;20275;-72
2021/11/07 15:39:54;;;;;;;;;;;18.00;99.90;;;;;;6185417;23;19909;-71
2021/11/07 15:42:24;;;;;;;;;;;18.00;99.90;;;;;;6185054;23;19904;-69
2021/11/07 15:44:57;;;;;;;;;;;18.00;99.90;;;;;;6185384;23;19904;-71
2021/11/07 15:47:29;;;;;;;;;;;18.00;99.90;;;;;;6159141;23;19959;-72
2021/11/07 15:50:01;;;;;;;;;;;17.90;99.90;;;;;;6185378;23;19904;-77
2021/11/07 15:52:39;;;;;;;;;;;18.00;99.90;;;;;;6184886;23;19909;-74
2021/11/07 15:57:43;;;;;;;;;;;18.00;99.90;;;;;;6185184;23;19955;-75
2021/11/07 16:00:32;;;;;;;;;;;18.00;99.90;;;;;;6185411;23;19904;-74
2021/11/07 16:16:24;;;;;;;;;;;18.00;99.90;;;;;;6185214;23;20323;-79
2021/11/07 16:18:50;;;;;;;;;;;18.00;99.90;;;;;;6184912;23;19913;-79
2021/11/07 16:21:20;;;;;;;;;;;18.10;99.90;;;;;;6185124;23;20450;-79
2021/11/07 16:23:50;;;;;;;;;;;18.00;99.90;;;;;;6184845;23;20268;-76
2021/11/07 16:26:17;;;;;;;;;;;18.00;99.90;;;;;;6184448;23;19963;-77
2021/11/07 16:28:44;;;;;;;;;;;18.00;99.90;;;;;;6185241;23;19908;-78
2021/11/07 16:31:16;;;;;;;;;;;18.00;99.90;;;;;;6184912;23;19904;-78
2021/11/07 16:33:47;;;;;;;;;;;17.90;99.90;;;;;;6184998;23;19905;-78
2021/11/07 16:36:17;;;;;;;;;;;17.90;99.90;;;;;;6185157;23;19931;-75
2021/11/07 16:38:54;;;;;;;;;;;17.90;99.90;;;;;;6185031;23;19915;-78
2021/11/07 16:41:43;;;;;;;;;;;17.90;99.90;;;;;;6184585;23;19936;-77
2021/11/07 16:44:08;;;;;;;;;;;18.00;99.90;;;;;;6184001;23;19951;-76
2021/11/07 16:46:39;;;;;;;;;;;17.90;99.90;;;;;;6184561;23;19984;-78
2021/11/07 16:49:07;;;;;;;;;;;17.90;99.90;;;;;;6185068;23;20356;-75
2021/11/07 16:51:37;;;;;;;;;;;17.80;99.90;;;;;;6184909;23;19915;-77
2021/11/07 16:54:18;;;;;;;;;;;17.90;99.90;;;;;;6185071;23;19908;-77
2021/11/07 16:56:45;;;;;;;;;;;17.80;99.90;;;;;;6183530;23;19954;-78
2021/11/07 16:59:30;;;;;;;;;;;17.80;99.90;;;;;;6184968;23;20274;-78
2021/11/07 17:04:53;;;;;;;;;;;17.80;99.90;;;;;;6184751;23;20285;-78
2021/11/07 17:10:05;;;;;;;;;;;17.80;99.90;;;;;;6184791;23;19932;-74
2021/11/07 17:12:34;;;;;;;;;;;17.80;99.90;;;;;;6184645;23;19904;-78
2021/11/07 17:15:12;;;;;;;;;;;17.80;99.90;;;;;;6184645;23;19928;-79
2021/11/07 17:20:16;;;;;;;;;;;17.80;99.90;;;;;;6186727;23;19905;-78
2021/11/07 17:22:49;;;;;;;;;;;17.90;99.90;;;;;;6186308;23;19904;-74
2021/11/07 17:25:24;;;;;;;;;;;17.90;99.90;;;;;;6186002;23;19913;-77
2021/11/07 17:28:16;;;;;;;;;;;18.00;99.90;;;;;;6186834;23;19939;-76
2021/11/07 17:30:49;;;;;;;;;;;18.00;99.90;;;;;;6186265;23;20235;-77
2021/11/07 17:33:25;;;;;;;;;;;18.00;99.90;;;;;;6186556;23;19927;-78
2021/11/07 17:36:06;;;;;;;;;;;17.90;99.90;;;;;;6186542;23;19959;-77
2021/11/07 17:54:51;;;;;;;;;;;17.80;99.90;;;;;;6185903;23;19950;-79
2021/11/07 17:57:19;;;;;;;;;;;17.80;99.90;;;;;;6186587;23;19912;-78
2021/11/07 17:59:46;;;;;;;;;;;17.80;99.90;;;;;;6186412;23;19979;-79
2021/11/07 18:02:13;;;;;;;;;;;17.80;99.90;;;;;;6186481;23;19912;-78
2021/11/07 18:04:43;;;;;;;;;;;17.70;99.90;;;;;;6186451;23;19904;-78
2021/11/07 18:10:20;;;;;;;;;;;17.80;99.90;;;;;;6186169;23;19904;-77
2021/11/07 18:12:29;;;;;;;;;;;17.80;99.90;;;;;;6170539;23;19904;-77
2021/11/07 18:14:56;;;;;;;;;;;17.80;99.90;;;;;;6186319;23;19908;-79
2021/11/07 18:17:23;;;;;;;;;;;17.80;99.90;;;;;;6186317;23;19922;-79
2021/11/07 18:19:51;;;;;;;;;;;17.80;99.90;;;;;;6186220;23;19905;-72
2021/11/07 18:25:01;;;;;;;;;;;17.80;99.90;;;;;;6185489;23;20221;-68
2021/11/07 18:27:30;;;;;;;;;;;17.80;99.90;;;;;;6186272;23;19947;-74